Airfield :
LOGIN :

Register | Disclaimer

   EN    FR    IT 

 










Legend :    VFR   Marginal VFR   IFR   Intensive IFR   Very Intensive IFR
Visi :
Ceiling :
>= 8 km
>= 3000ft
5 to 8 km
1000 to 3000 ft
1500m to 5 km
500 to 1000 ft
800 to 1500m
200 to 500 ft
< 800m
< 200 ft
Symbols :   Thunderstorms  Fog  Heavy snow  Heavy precipitations  Wind > 20 kt
SIGMETs :     Misc.  Thunderstorms  Icing  Turbulence  Mountain Waves  Volcanic Ashes






- Airport Elevation : 1649 ft
- IATA code : HHN


EDFH - Frankfurt-Hahn Rhineland-Palatinate

CURRENT METAR :
  • 291120Z 13008KT CAVOK 07/01 Q1013

EXPIRED METARs :
  • 291050Z 16006KT 120V200 CAVOK 06/01 Q1013
  • 291020Z 15008KT CAVOK 05/01 Q1013
  • 290950Z 14009KT 9999 FEW001 04/01 Q1014
  • 290920Z 14010KT 9000 FEW001 01/01 Q1014
  • 290850Z 15008KT 0800 R21/0500N FZFG NSC M01/M01 Q1014
  • 290820Z 16005KT 6000 R21/0900U NSC M01/M01 Q1014
  • 290750Z 15008KT 0300 R21/0400D FZFG NSC M02/M02 Q1015
  • 290720Z 14010KT 0800 R21/0400N FZFG NSC M03/M03 Q1015
  • 290650Z 15009KT 1500 BR NSC M03/M04 Q1015

TAF TAF EDFH
Valid from the 29 at 12:00 until the 01 at 12:00 UTC


291100Z 2912/0112 17009KT CAVOK
PROB30
TEMPO 0100/0106 2000 BR BKN014
BECMG 0105/0108 23010KT
PROB40
TEMPO 0106/0112 4000 DZ BKN008



MET'MAP, your aeronautical weather chart ! - Copyright ORBIFLY December 2007 - Disclaimer

ORBIFLY MET'MAP TEAM :

Programming & Development : Alexandra Zaïnal
Original concept : Baudouin d'Aumeries
Technical & hardware support : Manuel Goepfert
Assistance : Marc-Olivier Méhu




SOURCES & CREDITS :

   NOAA